Blairsville, Indiana
Current Conditions -  °F | °C
As of 7:54 AM on Friday 19 Dec 2014 (Local Time) from KEVV Reporting Station
Broken Clouds Broken Clouds  
Wind Chill: -6°   Ceiling: 4300
Heat Index: -1°   Visibility: 8mi
Dew Point: -5°   Wind: 9mph
Humidity: 75%   Direction: 30°NNE
Pressure: 30.33"   Gusts: NA
Location:  38.0787°N, 87.7717°W
Report Text: KEVV 191354Z 03008KT 8SM BKN043 M01/M05 A3033 RMK AO2 SLP274 T10111050
Loading
Personal Weather Stations






























Interactive Weather Map New forecast layout! Learn more

10-Day Weather Forecast

Advertisements
Track Severe Weather on mobile